Time;durP1;ratioP1;P1;durP2;ratioP2;P2;SDS_P1;SDS_P2;PMS_P1;PMS_P2;Temp;Humidity;BMP_temperature;BMP_pressure;BME280_temperature;BME280_humidity;BME280_pressure;Samples;Min_cycle;Max_cycle;Signal;HPM_P1;HPM_P2
2021/05/02 00:00:10;;;;;;;36.05;11.95;;;6.60;99.90;;;;;;5919481;24;20096;-83
2021/05/02 00:02:46;;;;;;;32.22;12.73;;;6.60;99.90;;;;;;5920184;24;20021;-82
2021/05/02 00:05:30;;;;;;;34.70;13.50;;;6.70;99.90;;;;;;5896200;24;20025;-82
2021/05/02 00:07:57;;;;;;;25.65;14.13;;;6.70;99.90;;;;;;5922777;24;20036;-82
2021/05/02 00:11:14;;;;;;;29.25;15.20;;;6.80;99.90;;;;;;5802318;24;20031;-82
2021/05/02 00:14:10;;;;;;;37.25;13.98;;;6.80;99.90;;;;;;5900625;24;20350;-84
2021/05/02 00:16:53;;;;;;;29.52;15.70;;;6.90;99.90;;;;;;5897714;24;20025;-84
2021/05/02 00:19:30;;;;;;;39.58;15.10;;;6.90;99.90;;;;;;5876356;24;20032;-82
2021/05/02 00:21:57;;;;;;;34.35;15.48;;;7.00;99.90;;;;;;5950656;23;20027;-82
2021/05/02 00:24:26;;;;;;;41.28;17.33;;;7.10;99.90;;;;;;6035835;23;20625;-82
2021/05/02 00:27:08;;;;;;;35.45;14.88;;;7.10;99.90;;;;;;6036432;23;20342;-82
2021/05/02 00:29:39;;;;;;;36.53;14.80;;;7.20;99.90;;;;;;6047210;23;20027;-82
2021/05/02 00:32:13;;;;;;;32.22;16.08;;;7.20;99.90;;;;;;6059861;23;20097;-85
2021/05/02 00:34:41;;;;;;;36.40;15.18;;;7.30;99.90;;;;;;6036442;23;20026;-83
2021/05/02 00:37:21;;;;;;;34.30;15.88;;;7.30;99.90;;;;;;6034882;23;20014;-84
2021/05/02 00:39:49;;;;;;;30.58;13.88;;;7.30;99.90;;;;;;6061626;23;20335;-82
2021/05/02 00:42:33;;;;;;;32.95;15.50;;;7.40;99.90;;;;;;6061086;23;20544;-83
2021/05/02 00:45:56;;;;;;;29.73;14.50;;;7.40;99.90;;;;;;6054259;23;20050;-82
2021/05/02 00:49:41;;;;;;;32.00;15.25;;;7.40;99.90;;;;;;5986370;23;20076;-82
2021/05/02 00:53:23;;;;;;;31.15;14.43;;;7.40;99.90;;;;;;5949324;24;20122;-82
2021/05/02 00:56:26;;;;;;;28.58;13.05;;;7.50;99.90;;;;;;5954502;24;20102;-82
2021/05/02 00:59:48;;;;;;;22.15;11.73;;;7.50;99.90;;;;;;6013904;23;20019;-81
2021/05/02 01:02:34;;;;;;;30.60;13.57;;;7.50;99.90;;;;;;6027921;23;20019;-82
2021/05/02 01:05:12;;;;;;;32.67;14.95;;;7.50;99.90;;;;;;6010817;23;20019;-82
2021/05/02 01:07:42;;;;;;;29.95;13.38;;;7.50;99.90;;;;;;6042584;23;20023;-82
2021/05/02 01:10:33;;;;;;;30.00;13.98;;;7.50;99.90;;;;;;6009209;23;20440;-85
2021/05/02 01:13:27;;;;;;;30.95;13.32;;;7.50;99.90;;;;;;6022013;23;20082;-83
2021/05/02 01:16:12;;;;;;;38.05;13.07;;;7.50;99.90;;;;;;6033164;23;20031;-84
2021/05/02 01:18:55;;;;;;;26.25;10.70;;;7.50;99.90;;;;;;6043164;23;20059;-82
2021/05/02 01:22:03;;;;;;;26.63;9.95;;;7.50;99.90;;;;;;6031946;23;20020;-82
2021/05/02 01:28:11;;;;;;;22.23;10.75;;;7.40;99.90;;;;;;5950039;24;20024;-83
2021/05/02 01:30:52;;;;;;;18.17;9.13;;;7.40;99.90;;;;;;5921027;24;20021;-83
2021/05/02 01:37:01;;;;;;;25.55;9.80;;;7.40;99.90;;;;;;5893972;24;20183;-83
2021/05/02 01:39:36;;;;;;;24.55;8.43;;;7.30;99.90;;;;;;5896993;24;20036;-83
2021/05/02 01:43:09;;;;;;;24.63;9.13;;;7.30;99.90;;;;;;5930216;24;20063;-82
2021/05/02 01:45:36;;;;;;;30.30;10.75;;;7.30;99.90;;;;;;5866054;24;20033;-82
2021/05/02 01:48:38;;;;;;;32.05;9.85;;;7.30;99.90;;;;;;5849316;24;20682;-82
2021/05/02 01:51:44;;;;;;;27.52;8.05;;;7.30;99.90;;;;;;5874263;24;20044;-82
2021/05/02 01:55:19;;;;;;;27.85;7.90;;;7.30;99.90;;;;;;5865685;24;20024;-82
2021/05/02 01:58:22;;;;;;;23.92;5.13;;;7.30;99.90;;;;;;5817024;24;20103;-82
2021/05/02 02:01:41;;;;;;;20.33;7.43;;;7.30;99.90;;;;;;5760483;24;20027;-82
2021/05/02 02:05:36;;;;;;;25.73;7.25;;;7.30;99.90;;;;;;5753041;24;20030;-82
2021/05/02 02:08:40;;;;;;;19.60;6.15;;;7.20;99.90;;;;;;5669722;25;20096;-81
2021/05/02 02:11:52;;;;;;;18.92;6.80;;;7.20;99.90;;;;;;5686847;24;20035;-81
2021/05/02 02:14:56;;;;;;;30.27;6.40;;;7.20;99.90;;;;;;5785863;24;20042;-82
2021/05/02 02:17:41;;;;;;;26.55;4.93;;;7.20;99.90;;;;;;5785775;24;20098;-82
2021/05/02 02:20:26;;;;;;;30.88;7.40;;;7.20;99.90;;;;;;5856993;24;20030;-83
2021/05/02 02:23:42;;;;;;;23.63;6.53;;;7.10;99.90;;;;;;5893331;24;20114;-82
2021/05/02 02:27:05;;;;;;;21.73;5.22;;;7.10;99.90;;;;;;5953590;23;20090;-81
2021/05/02 02:30:33;;;;;;;26.52;5.97;;;7.10;99.90;;;;;;6030774;23;20039;-81
2021/05/02 02:36:53;;;;;;;23.27;5.45;;;7.10;99.90;;;;;;5945960;24;20024;-82
2021/05/02 02:39:40;;;;;;;27.27;5.72;;;7.10;99.90;;;;;;5952420;24;20052;-82
2021/05/02 02:43:03;;;;;;;22.75;5.68;;;7.10;99.90;;;;;;5943015;24;20103;-82
2021/05/02 02:46:10;;;;;;;22.08;4.40;;;7.10;99.90;;;;;;5967963;24;20042;-82
2021/05/02 02:49:16;;;;;;;19.75;4.38;;;7.10;99.90;;;;;;5948119;24;20375;-82
2021/05/02 02:51:58;;;;;;;16.33;4.53;;;7.00;99.90;;;;;;5892547;24;20029;-83
2021/05/02 02:55:09;;;;;;;28.17;5.22;;;7.10;99.90;;;;;;5943948;24;20547;-83
2021/05/02 02:58:24;;;;;;;13.07;3.35;;;7.00;99.90;;;;;;5878261;24;20587;-82
2021/05/02 03:01:49;;;;;;;23.67;5.40;;;7.00;99.90;;;;;;5858816;24;20026;-82
2021/05/02 03:05:16;;;;;;;16.15;3.25;;;6.90;99.90;;;;;;5946050;24;20069;-82
2021/05/02 03:08:37;;;;;;;22.13;5.43;;;6.90;99.90;;;;;;5892930;24;20084;-81
2021/05/02 03:11:15;;;;;;;27.48;3.72;;;6.90;99.90;;;;;;5892912;24;20022;-82
2021/05/02 03:18:43;;;;;;;15.02;4.10;;;6.80;99.90;;;;;;5892028;24;20813;-82
2021/05/02 03:22:05;;;;;;;8.57;3.70;;;6.90;99.90;;;;;;5919128;24;20104;-82
2021/05/02 03:25:32;;;;;;;11.93;2.92;;;6.90;99.90;;;;;;5920249;24;20101;-82
2021/05/02 03:32:49;;;;;;;22.13;3.80;;;7.00;99.90;;;;;;5891581;24;20115;-82
2021/05/02 03:39:29;;;;;;;15.40;3.50;;;7.00;99.90;;;;;;5892357;24;20029;-84
2021/05/02 03:42:24;;;;;;;13.95;3.55;;;7.00;99.90;;;;;;5795238;24;20026;-84
2021/05/02 03:45:29;;;;;;;18.55;3.50;;;7.00;99.90;;;;;;5781335;24;20065;-82
2021/05/02 03:48:28;;;;;;;9.43;2.58;;;7.00;99.90;;;;;;5784659;24;20027;-82
2021/05/02 03:51:19;;;;;;;7.78;2.60;;;7.00;99.90;;;;;;5776002;24;20043;-82
2021/05/02 03:54:29;;;;;;;21.92;5.15;;;7.00;99.90;;;;;;5750191;24;20024;-82
2021/05/02 03:57:16;;;;;;;19.17;2.83;;;7.00;99.90;;;;;;5764875;24;20027;-82
2021/05/02 03:59:45;;;;;;;9.98;1.95;;;7.00;99.90;;;;;;5810764;24;20663;-82
2021/05/02 04:02:32;;;;;;;8.03;2.07;;;7.00;99.90;;;;;;5788786;24;20138;-84
2021/05/02 04:05:20;;;;;;;13.63;3.33;;;7.00;99.90;;;;;;5793216;24;20168;-83
2021/05/02 04:08:01;;;;;;;20.13;3.20;;;7.00;99.90;;;;;;5774638;24;20546;-83
2021/05/02 04:11:10;;;;;;;19.23;3.13;;;7.00;99.90;;;;;;5812623;24;20050;-82
2021/05/02 04:17:56;;;;;;;13.63;2.47;;;7.00;99.90;;;;;;5799347;24;20027;-82
2021/05/02 04:20:50;;;;;;;11.10;2.83;;;7.00;99.90;;;;;;5850410;24;20094;-82
2021/05/02 04:23:35;;;;;;;15.77;3.13;;;7.00;99.90;;;;;;5935654;24;20030;-82
2021/05/02 04:26:56;;;;;;;8.05;2.17;;;7.00;99.90;;;;;;5983470;23;20042;-82
2021/05/02 04:29:38;;;;;;;16.50;3.10;;;7.00;99.90;;;;;;5983627;23;20368;-82
2021/05/02 04:32:55;;;;;;;9.57;2.60;;;7.10;99.90;;;;;;6002188;23;20098;-83
2021/05/02 04:35:40;;;;;;;13.20;2.45;;;7.10;99.90;;;;;;5984197;23;20024;-83
2021/05/02 04:38:17;;;;;;;9.45;2.83;;;7.10;99.90;;;;;;6002323;23;20079;-82
2021/05/02 04:40:45;;;;;;;15.95;2.55;;;7.10;99.90;;;;;;6005201;23;20014;-82
2021/05/02 04:44:04;;;;;;;13.50;2.30;;;7.10;99.90;;;;;;6031084;23;20357;-83
2021/05/02 04:47:23;;;;;;;8.95;2.08;;;7.10;99.90;;;;;;6118261;23;20018;-83
2021/05/02 04:53:10;;;;;;;14.02;2.78;;;7.10;99.90;;;;;;6093799;23;20052;-84
2021/05/02 04:55:54;;;;;;;10.90;2.38;;;7.20;99.90;;;;;;6077952;23;20244;-83
2021/05/02 04:59:09;;;;;;;12.52;2.17;;;7.20;99.90;;;;;;6071401;23;20025;-83
2021/05/02 05:02:11;;;;;;;9.05;2.78;;;7.20;99.90;;;;;;6016098;23;20049;-83
2021/05/02 05:04:52;;;;;;;13.57;2.40;;;7.20;99.90;;;;;;6030556;23;20016;-82
2021/05/02 05:07:21;;;;;;;8.57;2.03;;;7.20;99.90;;;;;;6033610;23;20102;-82
2021/05/02 05:10:19;;;;;;;19.63;3.20;;;7.20;99.90;;;;;;5984049;23;20394;-83
2021/05/02 05:13:21;;;;;;;2.33;1.38;;;7.20;99.90;;;;;;6005084;23;20020;-83
2021/05/02 05:16:37;;;;;;;17.83;2.15;;;7.20;99.90;;;;;;5982877;23;20026;-83
2021/05/02 05:19:55;;;;;;;6.50;2.10;;;7.20;99.90;;;;;;5977466;23;20059;-82
2021/05/02 05:26:27;;;;;;;10.38;3.38;;;7.20;99.90;;;;;;5975526;24;20031;-83
2021/05/02 05:33:30;;;;;;;13.93;2.50;;;7.20;99.90;;;;;;5947634;24;20027;-83
2021/05/02 05:41:09;;;;;;;6.57;2.10;;;7.30;99.90;;;;;;5814018;24;20199;-84
2021/05/02 05:44:33;;;;;;;10.73;2.50;;;7.30;99.90;;;;;;5793111;24;20046;-84
2021/05/02 05:47:17;;;;;;;6.22;1.70;;;7.30;99.90;;;;;;5743278;24;20032;-84
2021/05/02 05:50:14;;;;;;;13.02;3.75;;;7.30;99.90;;;;;;5733711;25;20051;-83
2021/05/02 05:53:28;;;;;;;11.88;3.00;;;7.40;99.90;;;;;;5734907;25;20056;-83
2021/05/02 05:56:03;;;;;;;14.32;3.90;;;7.20;99.90;;;;;;5745237;24;20395;-83
2021/05/02 05:59:09;;;;;;;11.10;2.13;;;7.20;99.90;;;;;;5734722;25;20032;-83
2021/05/02 06:02:30;;;;;;;9.45;2.83;;;7.10;99.90;;;;;;5722354;24;20019;-83
2021/05/02 06:05:40;;;;;;;13.02;3.25;;;7.20;99.90;;;;;;5658450;25;20029;-85
2021/05/02 06:09:18;;;;;;;6.00;1.85;;;7.20;99.90;;;;;;5660270;25;20109;-84
2021/05/02 06:12:12;;;;;;;;;;;7.10;99.90;;;;;;5657964;25;20034;-84
2021/05/02 06:14:54;;;;;;;11.75;2.42;;;7.00;99.90;;;;;;5717536;24;19925;-83
2021/05/02 06:17:29;;;;;;;5.90;1.88;;;6.90;99.90;;;;;;5820255;24;20041;-84
2021/05/02 06:19:55;;;;;;;6.70;2.55;;;6.90;99.90;;;;;;5850631;24;20028;-83
2021/05/02 06:22:23;;;;;;;4.90;2.17;;;6.80;99.90;;;;;;5925553;24;20391;-83
2021/05/02 06:25:06;;;;;;;11.80;3.33;;;6.70;99.90;;;;;;5920773;24;20426;-84
2021/05/02 06:27:32;;;;;;;12.05;3.42;;;6.70;99.90;;;;;;5874888;24;20437;-84
2021/05/02 06:29:58;;;;;;;10.25;2.22;;;6.70;99.90;;;;;;5897351;24;20032;-83
2021/05/02 06:32:26;;;;;;;12.90;3.00;;;6.80;99.90;;;;;;5897962;24;20191;-83
2021/05/02 06:34:52;;;;;;;9.43;2.40;;;7.00;99.90;;;;;;5896178;24;20100;-84
2021/05/02 06:37:56;;;;;;;5.28;2.03;;;6.80;99.90;;;;;;5911794;24;20053;-82
2021/05/02 06:40:56;;;;;;;6.13;1.92;;;6.90;99.90;;;;;;5947734;24;20044;-85
2021/05/02 06:43:32;;;;;;;6.97;2.22;;;6.90;99.90;;;;;;5948163;24;20488;-83
2021/05/02 06:46:27;;;;;;;8.45;2.17;;;7.00;99.90;;;;;;5967360;23;20024;-83
2021/05/02 06:49:02;;;;;;;6.13;1.80;;;7.00;99.90;;;;;;5974909;24;20024;-84
2021/05/02 06:52:02;;;;;;;6.40;1.83;;;7.00;99.90;;;;;;5975999;24;20259;-84
2021/05/02 06:55:51;;;;;;;5.97;2.00;;;7.00;99.90;;;;;;5975677;24;20023;-83
2021/05/02 06:58:31;;;;;;;9.18;2.67;;;7.00;99.90;;;;;;5910790;24;20067;-83
2021/05/02 07:00:58;;;;;;;5.18;1.10;;;6.90;99.90;;;;;;5947024;24;20032;-84
2021/05/02 07:03:28;;;;;;;;;;;6.90;99.90;;;;;;5926975;24;20379;-82
2021/05/02 07:06:02;;;;;;;8.50;1.63;;;6.80;99.90;;;;;;5946699;24;19974;-82
2021/05/02 07:08:30;;;;;;;10.57;1.42;;;6.70;99.90;;;;;;5924488;24;20036;-84
2021/05/02 07:11:05;;;;;;;13.85;1.73;;;6.70;99.90;;;;;;5969946;24;20092;-82
2021/05/02 07:13:33;;;;;;;7.40;2.85;;;6.70;99.90;;;;;;5975503;24;20047;-82
2021/05/02 07:15:59;;;;;;;7.43;1.67;;;6.80;99.90;;;;;;5951029;24;20020;-82
2021/05/02 07:18:35;;;;;;;10.00;1.25;;;6.80;99.90;;;;;;5952410;24;20028;-83
2021/05/02 07:21:04;;;;;;;7.75;1.70;;;6.80;99.90;;;;;;5981024;23;20060;-83
2021/05/02 07:23:30;;;;;;;10.18;1.85;;;6.80;99.90;;;;;;6003396;23;20343;-83
2021/05/02 07:26:21;;;;;;;6.75;1.00;;;6.80;99.90;;;;;;6003517;23;20018;-83
2021/05/02 07:28:57;;;;;;;7.57;1.50;;;6.80;99.90;;;;;;6013805;23;20082;-82
2021/05/02 07:31:31;;;;;;;12.60;2.35;;;6.80;99.90;;;;;;6037846;23;20102;-82
2021/05/02 07:34:33;;;;;;;7.85;1.50;;;6.90;99.90;;;;;;6015947;23;20734;-82
2021/05/02 07:37:04;;;;;;;8.68;1.90;;;6.80;99.90;;;;;;6061042;23;20030;-82
2021/05/02 07:39:39;;;;;;;4.13;1.25;;;6.90;99.90;;;;;;6162275;23;20017;-82
2021/05/02 07:42:05;;;;;;;8.68;2.00;;;7.00;99.90;;;;;;6153814;23;20023;-83
2021/05/02 07:44:38;;;;;;;2.03;0.80;;;7.10;99.90;;;;;;6130948;23;20059;-83
2021/05/02 07:47:18;;;;;;;6.97;1.55;;;7.10;99.90;;;;;;6157014;23;20068;-84
2021/05/02 07:49:44;;;;;;;4.50;1.65;;;6.90;99.90;;;;;;6129503;23;20028;-87
2021/05/02 07:52:10;;;;;;;5.70;1.17;;;6.90;99.90;;;;;;6105586;23;20013;-85
2021/05/02 07:54:35;;;;;;;11.35;1.88;;;6.80;99.90;;;;;;6155475;23;20013;-86
2021/05/02 07:57:01;;;;;;;5.22;1.52;;;6.80;99.90;;;;;;6130072;23;20032;-88
2021/05/02 07:59:27;;;;;;;10.32;1.45;;;6.70;99.90;;;;;;6155777;23;20080;-86
2021/05/02 08:01:53;;;;;;;7.65;1.70;;;6.60;99.90;;;;;;6129612;23;20017;-86
2021/05/02 08:04:19;;;;;;;7.70;1.80;;;6.60;99.90;;;;;;6155440;23;20103;-85
2021/05/02 08:06:45;;;;;;;8.73;1.95;;;6.60;99.90;;;;;;6154904;23;20020;-88
2021/05/02 08:09:12;;;;;;;7.60;1.90;;;6.60;99.90;;;;;;6131497;23;20024;-86
2021/05/02 08:11:38;;;;;;;5.40;1.52;;;6.60;99.90;;;;;;6156417;23;20028;-86
2021/05/02 08:14:07;;;;;;;2.33;1.58;;;6.80;99.90;;;;;;6130376;23;20013;-87
2021/05/02 08:16:33;;;;;;;5.57;1.15;;;6.90;99.90;;;;;;6132123;23;20425;-87
2021/05/02 08:19:01;;;;;;;6.15;1.92;;;7.00;99.90;;;;;;6130433;23;20017;-87
2021/05/02 08:21:30;;;;;;;4.57;1.00;;;7.10;99.90;;;;;;6133050;23;20025;-87
2021/05/02 08:23:56;;;;;;;9.30;1.60;;;7.20;99.90;;;;;;6130857;23;20091;-86
2021/05/02 08:26:22;;;;;;;4.32;1.55;;;7.40;99.90;;;;;;6131571;23;20044;-87
2021/05/02 08:28:49;;;;;;;5.80;1.45;;;7.40;99.90;;;;;;6130858;23;20017;-87
2021/05/02 08:31:16;;;;;;;5.00;2.65;;;7.50;99.90;;;;;;6107085;23;20017;-86
2021/05/02 08:33:47;;;;;;;6.85;1.63;;;7.50;99.90;;;;;;6141876;23;20398;-90
2021/05/02 08:36:25;;;;;;;6.50;2.10;;;7.40;99.90;;;;;;6133496;23;20473;-88
2021/05/02 08:38:52;;;;;;;7.25;1.60;;;7.40;99.90;;;;;;6155076;23;20029;-87
2021/05/02 08:41:29;;;;;;;1.55;0.98;;;7.60;99.90;;;;;;6104668;23;20049;-84
2021/05/02 08:44:26;;;;;;;2.38;0.70;;;7.60;99.90;;;;;;6151158;23;20092;-86
2021/05/02 08:46:54;;;;;;;1.00;0.77;;;7.60;99.90;;;;;;6176544;23;20123;-87
2021/05/02 08:49:32;;;;;;;23.02;1.35;;;7.60;99.90;;;;;;6154730;23;20017;-87
2021/05/02 08:52:34;;;;;;;;;;;7.70;99.90;;;;;;6119132;23;20343;-88
2021/05/02 08:55:07;;;;;;;6.43;0.82;;;7.80;99.90;;;;;;6073911;23;19971;-87
2021/05/02 08:57:35;;;;;;;9.95;1.55;;;7.80;99.90;;;;;;6047196;23;20026;-91
2021/05/02 09:00:01;;;;;;;8.80;1.60;;;7.90;99.90;;;;;;6095602;23;20025;-87
2021/05/02 09:02:28;;;;;;;5.57;1.77;;;8.00;99.90;;;;;;6121146;23;20029;-88
2021/05/02 09:04:56;;;;;;;9.45;1.83;;;8.10;99.90;;;;;;6096958;23;20381;-88
2021/05/02 09:07:22;;;;;;;8.13;1.42;;;8.10;99.90;;;;;;6097592;23;20132;-88
2021/05/02 09:09:49;;;;;;;5.35;1.48;;;8.10;99.90;;;;;;6097208;23;20132;-92
2021/05/02 09:12:25;;;;;;;2.65;0.80;;;8.00;99.90;;;;;;6122373;23;20156;-89
2021/05/02 09:14:53;;;;;;;6.68;1.20;;;8.00;99.90;;;;;;6097487;23;20049;-88
2021/05/02 09:17:39;;;;;;;2.97;0.88;;;8.10;99.90;;;;;;6140129;23;20032;-89
2021/05/02 09:20:06;;;;;;;4.55;1.20;;;8.00;99.90;;;;;;6172040;23;20021;-88
2021/05/02 09:22:31;;;;;;;2.83;1.15;;;7.90;99.90;;;;;;6183757;23;20101;-89
2021/05/02 09:25:05;;;;;;;6.55;1.50;;;7.90;99.90;;;;;;6157371;23;20053;-88
2021/05/02 09:27:31;;;;;;;2.22;1.02;;;7.80;99.90;;;;;;6167784;23;20451;-87
2021/05/02 09:30:15;;;;;;;8.52;2.22;;;7.50;99.90;;;;;;6157898;23;20074;-90
2021/05/02 09:32:44;;;;;;;6.13;1.33;;;7.30;99.90;;;;;;6184362;23;20074;-89
2021/05/02 09:35:27;;;;;;;3.35;0.77;;;7.10;99.90;;;;;;6158388;23;20543;-88
2021/05/02 09:38:16;;;;;;;2.42;0.80;;;7.10;99.90;;;;;;6133211;23;20020;-92
2021/05/02 09:40:55;;;;;;;2.50;0.93;;;7.00;99.90;;;;;;6133394;23;20017;-88
2021/05/02 09:43:36;;;;;;;1.00;0.88;;;7.10;99.90;;;;;;6167815;23;20520;-89
2021/05/02 09:46:30;;;;;;;7.55;1.25;;;7.10;99.90;;;;;;6171041;23;20033;-86
2021/05/02 09:49:09;;;;;;;3.83;1.48;;;7.00;99.90;;;;;;6183957;23;20435;-87
2021/05/02 09:51:37;;;;;;;4.88;1.77;;;6.90;99.90;;;;;;6184529;23;20013;-86
2021/05/02 09:54:03;;;;;;;5.93;1.58;;;6.90;99.90;;;;;;6157579;23;20024;-86
2021/05/02 09:56:34;;;;;;;11.55;1.73;;;7.10;99.90;;;;;;6182728;23;20013;-88
2021/05/02 09:59:00;;;;;;;3.20;1.38;;;7.20;99.90;;;;;;6157253;23;20444;-88
2021/05/02 10:01:26;;;;;;;1.95;1.17;;;7.30;99.90;;;;;;6182033;23;20099;-87
2021/05/02 10:03:53;;;;;;;4.68;1.27;;;7.20;99.90;;;;;;6157040;23;20020;-90
2021/05/02 10:06:35;;;;;;;3.42;1.10;;;7.20;99.90;;;;;;6182114;23;20017;-86
2021/05/02 10:09:06;;;;;;;4.00;1.20;;;7.00;99.90;;;;;;6156262;23;20517;-87
2021/05/02 10:11:34;;;;;;;7.38;1.40;;;6.90;99.90;;;;;;6193412;23;20021;-86
2021/05/02 10:14:02;;;;;;;2.45;1.23;;;6.90;99.90;;;;;;6183307;23;20788;-88
2021/05/02 10:16:29;;;;;;;6.25;1.63;;;6.90;99.90;;;;;;6182299;23;20134;-88
2021/05/02 10:18:57;;;;;;;1.83;1.60;;;7.00;99.90;;;;;;6181886;23;20095;-90
2021/05/02 10:21:24;;;;;;;1.85;1.15;;;6.80;99.90;;;;;;6182410;23;20017;-88
2021/05/02 10:23:49;;;;;;;3.88;1.42;;;6.70;99.90;;;;;;6182409;23;20017;-88
2021/05/02 10:26:15;;;;;;;5.13;1.98;;;6.60;99.90;;;;;;6158134;23;20075;-91
2021/05/02 10:28:42;;;;;;;2.63;1.10;;;6.50;99.90;;;;;;6155665;23;20028;-86
2021/05/02 10:31:10;;;;;;;1.58;1.25;;;6.50;99.90;;;;;;6175745;23;20017;-86
2021/05/02 10:33:56;;;;;;;15.73;1.60;;;6.50;99.90;;;;;;6127605;23;20017;-86
2021/05/02 10:36:32;;;;;;;2.63;0.95;;;6.50;99.90;;;;;;6153853;23;20021;-89
2021/05/02 10:39:00;;;;;;;3.15;1.20;;;6.40;99.90;;;;;;6150989;23;20017;-90
2021/05/02 10:41:50;;;;;;;4.57;1.50;;;6.50;99.90;;;;;;6186565;23;20032;-86
2021/05/02 10:44:23;;;;;;;10.45;2.58;;;6.40;99.90;;;;;;6175789;23;20017;-88
2021/05/02 10:46:51;;;;;;;4.80;1.45;;;6.50;99.90;;;;;;6184936;23;20017;-85
2021/05/02 10:49:19;;;;;;;8.77;2.00;;;6.30;99.90;;;;;;6180555;23;20088;-88
2021/05/02 10:51:59;;;;;;;8.02;2.15;;;6.40;99.90;;;;;;6151679;23;20017;-88
2021/05/02 10:54:43;;;;;;;0.90;0.90;;;6.40;99.90;;;;;;6154020;23;20017;-83
2021/05/02 10:57:36;;;;;;;4.20;1.50;;;6.30;99.90;;;;;;6179863;23;20017;-83
2021/05/02 11:00:13;;;;;;;8.40;2.63;;;6.40;99.90;;;;;;6147673;23;20021;-82
2021/05/02 11:02:42;;;;;;;1.90;1.55;;;6.40;99.90;;;;;;6154212;23;20044;-83
2021/05/02 11:05:13;;;;;;;3.53;1.10;;;6.40;99.90;;;;;;6153895;23;20021;-84
2021/05/02 11:08:43;;;;;;;5.72;0.90;;;6.30;99.90;;;;;;6132758;23;20477;-83
2021/05/02 11:14:43;;;;;;;2.60;1.23;;;6.30;99.90;;;;;;6117836;23;20465;-84
2021/05/02 11:17:16;;;;;;;2.97;1.55;;;6.40;99.90;;;;;;6079163;23;20129;-83
2021/05/02 11:19:41;;;;;;;4.47;0.93;;;6.50;99.90;;;;;;6093575;23;20404;-83
2021/05/02 11:22:11;;;;;;;6.00;1.23;;;6.60;99.90;;;;;;6114042;23;20448;-84
2021/05/02 11:24:44;;;;;;;7.90;1.85;;;6.70;99.90;;;;;;6062943;23;20025;-85
2021/05/02 11:30:05;;;;;;;5.97;1.23;;;7.10;99.90;;;;;;6092713;23;20416;-88
2021/05/02 11:32:38;;;;;;;5.63;1.45;;;7.20;99.90;;;;;;6089263;23;20045;-87
2021/05/02 11:35:53;;;;;;;5.38;1.30;;;7.30;99.90;;;;;;6086329;23;20096;-88
2021/05/02 11:38:22;;;;;;;0.77;0.70;;;7.50;99.90;;;;;;6111065;23;20028;-83
2021/05/02 11:41:09;;;;;;;3.63;1.30;;;7.70;99.90;;;;;;6099535;23;20022;-89
2021/05/02 11:43:37;;;;;;;4.90;1.40;;;7.70;99.90;;;;;;6119878;23;20025;-90
2021/05/02 11:46:06;;;;;;;4.45;0.90;;;7.60;99.90;;;;;;6163293;23;20071;-88
2021/05/02 11:48:36;;;;;;;2.50;1.20;;;7.50;99.90;;;;;;6206734;23;20051;-89
2021/05/02 11:51:32;;;;;;;2.85;0.85;;;7.50;99.90;;;;;;6180132;23;20103;-87
2021/05/02 11:54:11;;;;;;;5.43;1.63;;;7.70;99.90;;;;;;6153888;23;20455;-88
2021/05/02 11:56:36;;;;;;;1.70;0.85;;;7.90;99.90;;;;;;6155159;23;20026;-86
2021/05/02 11:59:05;;;;;;;8.02;1.27;;;8.10;99.90;;;;;;6155480;23;20017;-89
2021/05/02 12:01:32;;;;;;;7.05;1.30;;;8.20;99.90;;;;;;6205029;23;20066;-85
2021/05/02 12:04:07;;;;;;;6.82;1.20;;;8.10;99.90;;;;;;6205242;23;20055;-84
2021/05/02 12:06:37;;;;;;;8.70;1.85;;;8.10;99.90;;;;;;6205632;23;20016;-85
2021/05/02 12:09:20;;;;;;;5.38;1.45;;;8.10;99.90;;;;;;6180312;23;20096;-89
2021/05/02 12:11:54;;;;;;;6.68;1.40;;;8.20;99.90;;;;;;6181897;23;20016;-84
2021/05/02 12:14:30;;;;;;;3.17;0.70;;;8.20;99.90;;;;;;6191200;23;20016;-84
2021/05/02 12:16:59;;;;;;;7.28;1.35;;;8.20;99.90;;;;;;6180904;23;20013;-86
2021/05/02 12:19:27;;;;;;;2.30;0.90;;;8.20;99.90;;;;;;6203717;23;20156;-84
2021/05/02 12:21:53;;;;;;;3.50;1.05;;;8.20;99.90;;;;;;6180484;23;20025;-85
2021/05/02 12:24:30;;;;;;;4.82;1.00;;;8.20;99.90;;;;;;6179596;23;20035;-85
2021/05/02 12:27:11;;;;;;;6.75;2.47;;;8.30;99.90;;;;;;6180386;23;20020;-84
2021/05/02 12:29:39;;;;;;;4.68;1.52;;;8.30;99.90;;;;;;6216885;23;20450;-89
2021/05/02 12:32:14;;;;;;;8.07;1.58;;;8.20;99.90;;;;;;6180682;23;20648;-89
2021/05/02 12:34:46;;;;;;;5.60;1.35;;;8.40;99.90;;;;;;6215941;23;20023;-87
2021/05/02 12:37:13;;;;;;;3.25;1.67;;;8.40;99.90;;;;;;6210605;23;20027;-85
2021/05/02 12:39:42;;;;;;;5.68;0.98;;;8.40;99.90;;;;;;6186048;23;20020;-86
2021/05/02 12:42:09;;;;;;;5.53;1.25;;;8.50;99.90;;;;;;6208734;23;20370;-90
2021/05/02 12:44:37;;;;;;;1.30;0.40;;;8.50;99.90;;;;;;6209898;23;20020;-83
2021/05/02 12:47:13;;;;;;;11.05;1.33;;;8.50;99.90;;;;;;6181842;23;20092;-84
2021/05/02 12:50:04;;;;;;;1.90;0.68;;;8.70;99.90;;;;;;6130956;23;20051;-84
2021/05/02 12:52:35;;;;;;;3.83;0.93;;;8.70;99.90;;;;;;6153066;23;20559;-85
2021/05/02 12:55:19;;;;;;;3.35;0.90;;;8.70;99.90;;;;;;6181112;23;20044;-85
2021/05/02 12:57:50;;;;;;;7.97;0.98;;;8.90;99.90;;;;;;6182923;23;20020;-85
2021/05/02 13:00:20;;;;;;;4.68;1.13;;;9.00;99.90;;;;;;6181485;23;20017;-83
2021/05/02 13:02:52;;;;;;;3.13;0.98;;;9.00;99.90;;;;;;6134979;23;20541;-83
2021/05/02 13:05:20;;;;;;;2.60;0.82;;;8.90;99.90;;;;;;6181738;23;20111;-84
2021/05/02 13:07:53;;;;;;;11.98;1.30;;;9.00;99.90;;;;;;6131898;23;20031;-84
2021/05/02 13:10:20;;;;;;;6.82;1.20;;;9.10;99.90;;;;;;6131058;23;20063;-83
2021/05/02 13:13:00;;;;;;;7.45;0.98;;;9.30;99.90;;;;;;6131662;23;20071;-84
2021/05/02 13:15:47;;;;;;;5.25;0.95;;;9.20;99.90;;;;;;6179514;23;20040;-82
2021/05/02 13:18:19;;;;;;;4.82;0.85;;;9.30;99.90;;;;;;6162008;23;20025;-86
2021/05/02 13:20:48;;;;;;;6.88;1.73;;;9.20;99.90;;;;;;6127732;23;20017;-84
2021/05/02 13:23:34;;;;;;;2.38;0.68;;;9.40;99.90;;;;;;6177513;23;20392;-88
2021/05/02 13:26:22;;;;;;;6.45;1.10;;;9.30;99.90;;;;;;6178597;23;20192;-83
2021/05/02 13:31:57;;;;;;;6.43;0.90;;;9.30;99.90;;;;;;6177908;23;20049;-85
2021/05/02 13:34:30;;;;;;;;;;;9.30;99.90;;;;;;6155582;23;20013;-88
2021/05/02 13:36:58;;;;;;;4.13;1.33;;;9.10;99.90;;;;;;6155720;23;19944;-86
2021/05/02 13:39:26;;;;;;;4.78;0.80;;;9.00;99.90;;;;;;6181460;23;20017;-85
2021/05/02 13:41:54;;;;;;;3.35;0.80;;;8.90;99.90;;;;;;6182674;23;20028;-86
2021/05/02 13:44:22;;;;;;;4.07;0.77;;;8.90;99.90;;;;;;6183329;23;20017;-87
2021/05/02 13:46:50;;;;;;;6.43;1.00;;;8.80;99.90;;;;;;6182002;23;20518;-84
2021/05/02 13:49:16;;;;;;;7.07;0.95;;;8.80;99.90;;;;;;6156671;23;20017;-86
2021/05/02 13:51:45;;;;;;;6.30;0.98;;;8.90;99.90;;;;;;6182474;23;20020;-83
2021/05/02 13:54:13;;;;;;;5.60;1.52;;;8.80;99.90;;;;;;6156069;23;20398;-83
2021/05/02 13:56:40;;;;;;;2.30;0.98;;;8.70;99.90;;;;;;6131148;23;20017;-83
2021/05/02 13:59:06;;;;;;;4.78;1.20;;;8.60;99.90;;;;;;6182192;23;20506;-84
2021/05/02 14:01:32;;;;;;;7.10;1.00;;;8.50;99.90;;;;;;6180305;23;20021;-83
2021/05/02 14:04:00;;;;;;;3.60;0.60;;;8.40;99.90;;;;;;6182608;23;20502;-84
2021/05/02 14:06:27;;;;;;;4.57;0.98;;;8.50;99.90;;;;;;6130443;23;20125;-83
2021/05/02 14:08:53;;;;;;;6.15;1.48;;;8.50;99.90;;;;;;6182199;23;20028;-84
2021/05/02 14:11:21;;;;;;;5.85;1.38;;;8.50;99.90;;;;;;6130817;23;20024;-84
2021/05/02 14:13:48;;;;;;;3.65;0.75;;;8.50;99.90;;;;;;6155561;23;20020;-85
2021/05/02 14:16:14;;;;;;;9.77;1.13;;;8.50;99.90;;;;;;6155672;23;20043;-85
2021/05/02 14:18:40;;;;;;;9.25;1.30;;;8.50;99.90;;;;;;6155472;23;20020;-83
2021/05/02 14:21:07;;;;;;;13.00;1.20;;;8.60;99.90;;;;;;6155902;23;20039;-83
2021/05/02 14:23:33;;;;;;;4.18;0.95;;;8.80;99.90;;;;;;6155441;23;20862;-83
2021/05/02 14:25:59;;;;;;;3.88;1.55;;;8.80;99.90;;;;;;6181494;23;20017;-82
2021/05/02 14:28:26;;;;;;;4.10;0.93;;;9.00;99.90;;;;;;6180792;23;20021;-82
2021/05/02 14:30:53;;;;;;;5.20;1.08;;;9.20;99.90;;;;;;6155826;23;20448;-83
2021/05/02 14:33:19;;;;;;;3.58;1.20;;;9.30;99.90;;;;;;6181284;23;20067;-86
2021/05/02 14:35:45;;;;;;;10.65;0.90;;;9.30;99.90;;;;;;6154620;23;20044;-85
2021/05/02 14:38:14;;;;;;;7.70;1.98;;;9.40;99.90;;;;;;6155916;23;20096;-84
2021/05/02 14:40:41;;;;;;;2.90;0.52;;;9.30;99.90;;;;;;6155621;23;20088;-84
2021/05/02 14:43:08;;;;;;;2.95;0.63;;;9.20;99.90;;;;;;6132188;23;20804;-84
2021/05/02 14:45:35;;;;;;;2.58;0.70;;;9.20;99.90;;;;;;6157401;23;20344;-86
2021/05/02 14:48:01;;;;;;;5.38;0.90;;;9.30;99.90;;;;;;6190317;23;20232;-85
2021/05/02 14:50:27;;;;;;;6.53;1.45;;;9.80;99.90;;;;;;6154131;23;20093;-84
2021/05/02 14:52:53;;;;;;;5.13;0.88;;;10.00;99.90;;;;;;6180245;23;20024;-87
2021/05/02 14:55:20;;;;;;;1.02;0.63;;;9.80;99.90;;;;;;6179819;23;20017;-87
2021/05/02 14:57:46;;;;;;;0.73;0.40;;;9.70;99.90;;;;;;6179850;23;20108;-85
2021/05/02 15:00:16;;;;;;;1.38;0.38;;;9.60;99.90;;;;;;6155514;23;20350;-83